createdAt,value
2018-11-10T01:29:47.392Z,1005.43
2018-11-10T01:29:47.964Z,1005.42
2018-11-10T01:29:48.563Z,1005.38
2018-11-10T01:29:49.164Z,1005.39
2018-11-10T01:29:49.763Z,1005.39
2018-11-10T01:29:50.361Z,1005.40
2018-11-10T01:29:50.962Z,1005.41
2018-11-10T01:29:51.563Z,1005.40
2018-11-10T01:30:45.019Z,1005.39
2018-11-10T01:30:45.617Z,1005.39
2018-11-10T01:30:46.216Z,1005.41
2018-11-10T01:30:46.818Z,1005.43
2018-11-10T01:30:47.416Z,1005.42
2018-11-10T01:30:48.015Z,1005.41
2018-11-10T01:30:48.615Z,1005.42
2018-11-10T01:30:49.216Z,1005.41
2018-11-10T01:31:43.695Z,1005.40
2018-11-10T01:31:44.292Z,1005.41
2018-11-10T01:31:44.890Z,1005.42
2018-11-10T01:31:45.490Z,1005.41
2018-11-10T01:31:46.095Z,1005.41
2018-11-10T01:31:46.690Z,1005.37
2018-11-10T01:31:47.288Z,1005.40
2018-11-10T01:31:47.891Z,1005.39
2018-11-10T01:32:41.353Z,1005.45
2018-11-10T01:32:41.944Z,1005.47
2018-11-10T01:32:42.544Z,1005.39
2018-11-10T01:32:43.146Z,1005.42
2018-11-10T01:32:43.744Z,1005.42
2018-11-10T01:32:44.344Z,1005.45
2018-11-10T01:32:44.944Z,1005.44
2018-11-10T01:32:45.549Z,1005.45
2018-11-10T01:33:40.060Z,1005.50
2018-11-10T01:33:40.620Z,1005.46
2018-11-10T01:33:41.220Z,1005.44
2018-11-10T01:33:41.819Z,1005.52
2018-11-10T01:33:42.419Z,1005.44
2018-11-10T01:33:43.020Z,1005.44
2018-11-10T01:33:43.619Z,1005.44
2018-11-10T01:33:44.219Z,1005.45
2018-11-10T01:34:38.699Z,1005.48
2018-11-10T01:34:39.296Z,1005.47
2018-11-10T01:34:39.896Z,1005.43
2018-11-10T01:34:40.495Z,1005.47
2018-11-10T01:34:41.094Z,1005.48
2018-11-10T01:34:41.694Z,1005.42
2018-11-10T01:34:42.296Z,1005.46
2018-11-10T01:34:42.895Z,1005.45
2018-11-10T01:35:37.383Z,1005.47
2018-11-10T01:35:37.974Z,1005.43
2018-11-10T01:35:38.572Z,1005.46
2018-11-10T01:35:39.171Z,1005.45
2018-11-10T01:35:39.773Z,1005.45
2018-11-10T01:35:40.381Z,1005.41
2018-11-10T01:35:40.991Z,1005.45
2018-11-10T01:35:41.584Z,1005.46
2018-11-10T01:36:36.051Z,1005.40
2018-11-10T01:36:36.648Z,1005.40
2018-11-10T01:36:37.248Z,1005.43
2018-11-10T01:36:37.849Z,1005.40
2018-11-10T01:36:38.448Z,1005.41
2018-11-10T01:36:39.047Z,1005.45
2018-11-10T01:36:39.648Z,1005.42
2018-11-10T01:36:40.247Z,1005.40
2018-11-10T01:37:33.704Z,1005.37
2018-11-10T01:37:34.300Z,1005.37
2018-11-10T01:37:34.902Z,1005.39
2018-11-10T01:37:35.500Z,1005.36
2018-11-10T01:37:36.104Z,1005.43
2018-11-10T01:37:36.701Z,1005.40
2018-11-10T01:37:37.300Z,1005.39
2018-11-10T01:37:37.900Z,1005.44
2018-11-10T01:38:32.380Z,1005.37
2018-11-10T01:38:32.975Z,1005.36
2018-11-10T01:38:33.576Z,1005.36
2018-11-10T01:38:34.174Z,1005.38
2018-11-10T01:38:34.776Z,1005.35
2018-11-10T01:38:35.375Z,1005.40
2018-11-10T01:38:35.974Z,1005.36
2018-11-10T01:38:36.579Z,1005.38
2018-11-10T01:39:31.079Z,1005.37
2018-11-10T01:39:31.652Z,1005.36
2018-11-10T01:39:32.254Z,1005.38
2018-11-10T01:39:32.851Z,1005.39
2018-11-10T01:39:33.452Z,1005.35
2018-11-10T01:39:34.050Z,1005.34
2018-11-10T01:39:34.651Z,1005.34
2018-11-10T01:39:35.249Z,1005.35
2018-11-10T01:40:28.709Z,1005.40
2018-11-10T01:40:29.305Z,1005.38
2018-11-10T01:40:29.904Z,1005.38
2018-11-10T01:40:30.503Z,1005.38
2018-11-10T01:40:31.108Z,1005.36
2018-11-10T01:40:31.705Z,1005.37
2018-11-10T01:40:32.302Z,1005.37
2018-11-10T01:40:32.904Z,1005.39
2018-11-10T01:41:27.384Z,1005.41
2018-11-10T01:41:27.979Z,1005.42
2018-11-10T01:41:28.579Z,1005.41
2018-11-10T01:41:29.179Z,1005.39
2018-11-10T01:41:29.781Z,1005.39
2018-11-10T01:41:30.378Z,1005.38
2018-11-10T01:41:30.979Z,1005.42
2018-11-10T01:41:31.582Z,1005.39
2018-11-10T01:42:26.056Z,1005.37
2018-11-10T01:42:26.656Z,1005.37
2018-11-10T01:42:27.256Z,1005.35
2018-11-10T01:42:27.855Z,1005.37
2018-11-10T01:42:28.455Z,1005.35
2018-11-10T01:42:29.055Z,1005.35
2018-11-10T01:42:29.654Z,1005.36
2018-11-10T01:42:30.257Z,1005.35
2018-11-10T01:43:23.716Z,1005.34
2018-11-10T01:43:24.308Z,1005.29
2018-11-10T01:43:24.911Z,1005.32
2018-11-10T01:43:25.506Z,1005.36
2018-11-10T01:43:26.109Z,1005.39
2018-11-10T01:43:26.706Z,1005.35
2018-11-10T01:43:27.307Z,1005.33
2018-11-10T01:43:27.906Z,1005.32
2018-11-10T01:44:21.388Z,1005.35
2018-11-10T01:44:21.960Z,1005.32
2018-11-10T01:44:22.560Z,1005.29
2018-11-10T01:44:23.159Z,1005.37
2018-11-10T01:44:23.759Z,1005.34
2018-11-10T01:44:24.362Z,1005.33
2018-11-10T01:44:24.960Z,1005.33
2018-11-10T01:44:25.559Z,1005.31
2018-11-10T01:45:20.038Z,1005.32
2018-11-10T01:45:20.635Z,1005.33
2018-11-10T01:45:21.235Z,1005.35
2018-11-10T01:45:21.836Z,1005.32
2018-11-10T01:45:22.434Z,1005.32
2018-11-10T01:45:23.034Z,1005.32
2018-11-10T01:45:23.635Z,1005.33
2018-11-10T01:45:24.234Z,1005.36
2018-11-10T01:46:17.690Z,1005.36
2018-11-10T01:46:18.289Z,1005.31
2018-11-10T01:46:18.886Z,1005.31
2018-11-10T01:46:19.488Z,1005.31
2018-11-10T01:46:20.088Z,1005.33
2018-11-10T01:46:20.686Z,1005.34
2018-11-10T01:46:21.288Z,1005.34
2018-11-10T01:46:21.888Z,1005.32
2018-11-10T01:47:15.341Z,1005.32
2018-11-10T01:47:15.939Z,1005.34
2018-11-10T01:47:16.539Z,1005.33
2018-11-10T01:47:17.138Z,1005.35
2018-11-10T01:47:17.739Z,1005.34
2018-11-10T01:47:18.340Z,1005.33
2018-11-10T01:47:18.939Z,1005.34
2018-11-10T01:47:19.538Z,1005.33
2018-11-10T01:48:14.018Z,1005.32
2018-11-10T01:48:14.616Z,1005.34
2018-11-10T01:48:15.215Z,1005.33
2018-11-10T01:48:15.813Z,1005.34
2018-11-10T01:48:16.413Z,1005.33
2018-11-10T01:48:17.013Z,1005.30
2018-11-10T01:48:17.613Z,1005.31
2018-11-10T01:48:18.212Z,1005.31
2018-11-10T01:49:11.701Z,1005.32
2018-11-10T01:49:12.266Z,1005.33
2018-11-10T01:49:12.866Z,1005.31
2018-11-10T01:49:13.466Z,1005.33
2018-11-10T01:49:14.067Z,1005.28
2018-11-10T01:49:14.667Z,1005.33
2018-11-10T01:49:15.265Z,1005.33
2018-11-10T01:49:15.865Z,1005.30
2018-11-10T01:50:09.322Z,1005.28
2018-11-10T01:50:09.918Z,1005.26
2018-11-10T01:50:10.518Z,1005.25
2018-11-10T01:50:11.122Z,1005.29
2018-11-10T01:50:11.721Z,1005.26
2018-11-10T01:50:12.319Z,1005.26
2018-11-10T01:50:12.921Z,1005.25
2018-11-10T01:50:13.517Z,1005.27
2018-11-10T01:51:06.971Z,1005.24
2018-11-10T01:51:07.569Z,1005.22
2018-11-10T01:51:08.170Z,1005.24
2018-11-10T01:51:08.770Z,1005.23
2018-11-10T01:51:09.369Z,1005.25
2018-11-10T01:51:09.970Z,1005.25
2018-11-10T01:51:10.570Z,1005.29
2018-11-10T01:51:11.168Z,1005.25
2018-11-10T01:52:05.648Z,1005.22
2018-11-10T01:52:06.248Z,1005.24
2018-11-10T01:52:06.843Z,1005.23
2018-11-10T01:52:07.442Z,1005.20
2018-11-10T01:52:08.043Z,1005.22
2018-11-10T01:52:08.643Z,1005.24
2018-11-10T01:52:09.242Z,1005.20
2018-11-10T01:52:09.842Z,1005.21
2018-11-10T01:53:04.323Z,1005.21
2018-11-10T01:53:04.921Z,1005.18
2018-11-10T01:53:05.521Z,1005.20
2018-11-10T01:53:06.121Z,1005.16
2018-11-10T01:53:06.720Z,1005.17
2018-11-10T01:53:07.320Z,1005.23
2018-11-10T01:53:07.921Z,1005.20
2018-11-10T01:53:08.519Z,1005.17
2018-11-10T01:54:01.977Z,1005.16
2018-11-10T01:54:02.575Z,1005.19
2018-11-10T01:54:03.174Z,1005.17
2018-11-10T01:54:03.776Z,1005.18
2018-11-10T01:54:04.373Z,1005.20
2018-11-10T01:54:04.975Z,1005.17
2018-11-10T01:54:05.572Z,1005.19
2018-11-10T01:54:06.172Z,1005.22
2018-11-10T01:55:00.676Z,1005.16
2018-11-10T01:55:01.248Z,1005.15
2018-11-10T01:55:01.856Z,1005.15
2018-11-10T01:55:02.448Z,1005.13
2018-11-10T01:55:03.048Z,1005.14
2018-11-10T01:55:03.647Z,1005.12
2018-11-10T01:55:04.249Z,1005.13
2018-11-10T01:55:04.848Z,1005.16
2018-11-10T01:56:11.000Z,1005.12
2018-11-10T01:56:11.597Z,1005.11
2018-11-10T01:56:12.198Z,1005.13
2018-11-10T01:56:12.797Z,1005.11
2018-11-10T01:56:13.398Z,1005.12
2018-11-10T01:56:13.999Z,1005.13
2018-11-10T01:56:14.597Z,1005.13
2018-11-10T01:56:15.196Z,1005.08
2018-11-10T01:57:08.653Z,1005.12
2018-11-10T01:57:09.251Z,1005.10
2018-11-10T01:57:09.855Z,1005.06
2018-11-10T01:57:10.450Z,1005.10
2018-11-10T01:57:11.052Z,1005.11
2018-11-10T01:57:11.655Z,1005.08
2018-11-10T01:57:12.248Z,1005.12
2018-11-10T01:57:12.848Z,1005.11
2018-11-10T01:58:06.306Z,1005.07
2018-11-10T01:58:06.902Z,1005.08
2018-11-10T01:58:07.501Z,1005.06
2018-11-10T01:58:08.102Z,1005.08
2018-11-10T01:58:08.703Z,1005.09
2018-11-10T01:58:09.302Z,1005.08
2018-11-10T01:58:09.901Z,1005.07
2018-11-10T01:58:10.501Z,1005.10
2018-11-10T01:59:04.992Z,1005.07
2018-11-10T01:59:05.579Z,1005.09
2018-11-10T01:59:06.177Z,1005.02
2018-11-10T01:59:06.776Z,1005.08
2018-11-10T01:59:07.375Z,1005.02
2018-11-10T01:59:07.976Z,1005.03
2018-11-10T01:59:08.577Z,1005.05
2018-11-10T01:59:09.176Z,1005.06
2018-11-10T02:00:03.683Z,1005.01
2018-11-10T02:00:04.259Z,1005.02
2018-11-10T02:00:04.853Z,1005.01
2018-11-10T02:00:05.453Z,1005.00
2018-11-10T02:00:06.054Z,1004.99
2018-11-10T02:00:06.654Z,1005.03
2018-11-10T02:00:07.252Z,1005.02
2018-11-10T02:00:07.852Z,1005.01
2018-11-10T02:01:02.335Z,1004.95
2018-11-10T02:01:02.928Z,1004.97
2018-11-10T02:01:03.530Z,1004.99
2018-11-10T02:01:04.129Z,1005.01
2018-11-10T02:01:04.728Z,1004.99
2018-11-10T02:01:05.330Z,1004.99
2018-11-10T02:01:05.929Z,1004.98
2018-11-10T02:01:06.529Z,1004.98
2018-11-10T02:02:01.010Z,1005.00
2018-11-10T02:02:01.605Z,1004.98
2018-11-10T02:02:02.204Z,1004.95
2018-11-10T02:02:02.804Z,1004.97
2018-11-10T02:02:03.403Z,1004.99
2018-11-10T02:02:04.005Z,1005.00
2018-11-10T02:02:04.603Z,1004.98
2018-11-10T02:02:05.203Z,1004.98
2018-11-10T02:02:59.686Z,1004.97
2018-11-10T02:03:00.280Z,1004.97
2018-11-10T02:03:00.879Z,1004.98
2018-11-10T02:03:01.481Z,1004.95
2018-11-10T02:03:02.079Z,1004.95
2018-11-10T02:03:02.680Z,1004.98
2018-11-10T02:03:03.280Z,1004.96
2018-11-10T02:03:03.882Z,1004.95
2018-11-10T02:03:58.360Z,1004.91
2018-11-10T02:03:58.957Z,1004.92
2018-11-10T02:03:59.556Z,1004.93
2018-11-10T02:04:00.156Z,1004.94
2018-11-10T02:04:00.757Z,1004.93
2018-11-10T02:04:01.356Z,1004.95
2018-11-10T02:04:01.957Z,1004.93
2018-11-10T02:04:02.554Z,1004.97
2018-11-10T02:04:57.034Z,1004.94
2018-11-10T02:04:57.647Z,1004.93
2018-11-10T02:04:58.236Z,1004.93
2018-11-10T02:04:58.831Z,1004.94
2018-11-10T02:04:59.430Z,1004.94
2018-11-10T02:05:00.031Z,1004.93
2018-11-10T02:05:00.630Z,1004.94
2018-11-10T02:05:01.233Z,1004.92
2018-11-10T02:05:55.733Z,1004.90
2018-11-10T02:05:56.307Z,1004.88
2018-11-10T02:05:56.906Z,1004.89
2018-11-10T02:05:57.508Z,1004.90
2018-11-10T02:05:58.108Z,1004.88
2018-11-10T02:05:58.708Z,1004.89
2018-11-10T02:05:59.306Z,1004.91
2018-11-10T02:05:59.907Z,1004.90
2018-11-10T02:06:53.372Z,1004.91
2018-11-10T02:06:53.998Z,1004.89
2018-11-10T02:06:54.560Z,1004.87
2018-11-10T02:06:55.165Z,1004.86
2018-11-10T02:06:55.760Z,1004.89
2018-11-10T02:06:56.360Z,1004.86
2018-11-10T02:06:56.958Z,1004.89
2018-11-10T02:06:57.559Z,1004.86
2018-11-10T02:07:52.040Z,1004.88
2018-11-10T02:07:52.635Z,1004.87
2018-11-10T02:07:53.234Z,1004.89
2018-11-10T02:07:53.845Z,1004.89
2018-11-10T02:07:54.435Z,1004.89
2018-11-10T02:07:55.035Z,1004.84
2018-11-10T02:07:55.633Z,1004.87
2018-11-10T02:07:56.234Z,1004.88
2018-11-10T02:08:49.690Z,1004.85
2018-11-10T02:08:50.290Z,1004.88
2018-11-10T02:08:50.886Z,1004.88
2018-11-10T02:08:51.486Z,1004.86
2018-11-10T02:08:52.091Z,1004.87
2018-11-10T02:08:52.685Z,1004.92
2018-11-10T02:08:53.285Z,1004.87
2018-11-10T02:08:53.892Z,1004.89
2018-11-10T02:09:48.365Z,1004.83
2018-11-10T02:09:48.961Z,1004.78
2018-11-10T02:09:49.562Z,1004.84
2018-11-10T02:09:50.163Z,1004.86
2018-11-10T02:09:50.761Z,1004.88
2018-11-10T02:09:51.360Z,1004.80
2018-11-10T02:09:51.962Z,1004.80
2018-11-10T02:09:52.562Z,1004.84
2018-11-10T02:10:46.041Z,1004.82
2018-11-10T02:10:46.615Z,1004.81
2018-11-10T02:10:47.214Z,1004.84
2018-11-10T02:10:47.814Z,1004.88
2018-11-10T02:10:48.414Z,1004.81
2018-11-10T02:10:49.015Z,1004.84
2018-11-10T02:10:49.615Z,1004.85
2018-11-10T02:10:50.215Z,1004.85
2018-11-10T02:11:43.670Z,1004.85
2018-11-10T02:11:44.267Z,1004.83
2018-11-10T02:11:44.865Z,1004.86
2018-11-10T02:11:45.465Z,1004.82
2018-11-10T02:11:46.066Z,1004.87
2018-11-10T02:11:46.666Z,1004.85
2018-11-10T02:11:47.267Z,1004.78
2018-11-10T02:11:47.865Z,1004.81
2018-11-10T02:12:42.344Z,1004.83
2018-11-10T02:12:42.940Z,1004.85
2018-11-10T02:12:43.541Z,1004.84
2018-11-10T02:12:44.141Z,1004.85
2018-11-10T02:12:44.744Z,1004.82
2018-11-10T02:12:45.342Z,1004.85
2018-11-10T02:12:45.940Z,1004.83
2018-11-10T02:12:46.541Z,1004.82
2018-11-10T02:13:39.997Z,1004.85
2018-11-10T02:13:40.599Z,1004.82
2018-11-10T02:13:41.192Z,1004.84
2018-11-10T02:13:41.792Z,1004.82
2018-11-10T02:13:42.391Z,1004.82
2018-11-10T02:13:42.992Z,1004.85
2018-11-10T02:13:43.592Z,1004.83
2018-11-10T02:13:44.191Z,1004.84
2018-11-10T02:14:37.649Z,1004.86
2018-11-10T02:14:38.246Z,1004.84
2018-11-10T02:14:38.848Z,1004.86
2018-11-10T02:14:39.445Z,1004.84
2018-11-10T02:14:40.049Z,1004.86
2018-11-10T02:14:40.645Z,1004.87
2018-11-10T02:14:41.245Z,1004.88
2018-11-10T02:14:41.845Z,1004.83
2018-11-10T02:15:35.421Z,1004.81
2018-11-10T02:15:35.919Z,1004.82
2018-11-10T02:15:36.519Z,1004.82
2018-11-10T02:15:37.119Z,1004.81
2018-11-10T02:15:37.719Z,1004.80
2018-11-10T02:15:38.318Z,1004.84
2018-11-10T02:15:38.919Z,1004.77
2018-11-10T02:15:39.518Z,1004.84
2018-11-10T02:16:33.053Z,1004.76
2018-11-10T02:16:33.652Z,1004.76
2018-11-10T02:16:34.255Z,1004.77
2018-11-10T02:16:34.851Z,1004.77
2018-11-10T02:16:35.454Z,1004.82
2018-11-10T02:16:36.051Z,1004.77
2018-11-10T02:16:36.650Z,1004.76
2018-11-10T02:16:37.251Z,1004.80
2018-11-10T02:17:31.730Z,1004.80
2018-11-10T02:17:32.326Z,1004.75
2018-11-10T02:17:32.925Z,1004.79
2018-11-10T02:17:33.525Z,1004.78
2018-11-10T02:17:34.125Z,1004.75
2018-11-10T02:17:34.726Z,1004.76
2018-11-10T02:17:35.324Z,1004.75
2018-11-10T02:17:35.925Z,1004.78
2018-11-10T02:18:29.381Z,1004.75
2018-11-10T02:18:29.979Z,1004.75
2018-11-10T02:18:30.581Z,1004.75
2018-11-10T02:18:31.178Z,1004.77
2018-11-10T02:18:31.777Z,1004.73
2018-11-10T02:18:32.376Z,1004.74
2018-11-10T02:18:32.979Z,1004.75
2018-11-10T02:18:33.577Z,1004.74
2018-11-10T02:19:28.102Z,1004.74
2018-11-10T02:19:28.681Z,1004.74
2018-11-10T02:19:29.266Z,1004.75
2018-11-10T02:19:29.853Z,1004.73
2018-11-10T02:19:30.454Z,1004.73
2018-11-10T02:19:31.054Z,1004.70
2018-11-10T02:19:31.653Z,1004.71
2018-11-10T02:19:32.252Z,1004.76
2018-11-10T02:20:26.767Z,1004.72
2018-11-10T02:20:27.329Z,1004.69
2018-11-10T02:20:27.927Z,1004.69
2018-11-10T02:20:28.529Z,1004.68
2018-11-10T02:20:29.132Z,1004.67
2018-11-10T02:20:29.727Z,1004.72
2018-11-10T02:20:30.328Z,1004.69
2018-11-10T02:20:30.928Z,1004.71
2018-11-10T02:21:25.409Z,1004.66
2018-11-10T02:21:26.006Z,1004.63
2018-11-10T02:21:26.606Z,1004.65
2018-11-10T02:21:27.203Z,1004.66
2018-11-10T02:21:27.806Z,1004.64
2018-11-10T02:21:28.406Z,1004.67
2018-11-10T02:21:29.006Z,1004.66
2018-11-10T02:21:29.603Z,1004.67
2018-11-10T02:22:23.061Z,1004.66
2018-11-10T02:22:23.658Z,1004.67
2018-11-10T02:22:24.257Z,1004.67
2018-11-10T02:22:24.859Z,1004.68
2018-11-10T02:22:25.458Z,1004.68
2018-11-10T02:22:26.058Z,1004.66
2018-11-10T02:22:26.658Z,1004.64
2018-11-10T02:22:27.257Z,1004.66
2018-11-10T02:23:20.712Z,1004.65
2018-11-10T02:23:21.310Z,1004.62
2018-11-10T02:23:21.909Z,1004.63
2018-11-10T02:23:22.511Z,1004.64
2018-11-10T02:23:23.108Z,1004.64
2018-11-10T02:23:23.709Z,1004.62
2018-11-10T02:23:24.308Z,1004.64
2018-11-10T02:23:24.909Z,1004.64
2018-11-10T02:24:18.364Z,1004.62
2018-11-10T02:24:18.960Z,1004.63
2018-11-10T02:24:19.561Z,1004.63
2018-11-10T02:24:20.161Z,1004.61
2018-11-10T02:24:20.759Z,1004.60
2018-11-10T02:24:21.362Z,1004.59
2018-11-10T02:24:21.963Z,1004.61
2018-11-10T02:24:22.559Z,1004.64
2018-11-10T02:25:17.038Z,1004.63
2018-11-10T02:25:17.636Z,1004.58
2018-11-10T02:25:18.235Z,1004.59
2018-11-10T02:25:18.835Z,1004.61
2018-11-10T02:25:19.434Z,1004.65
2018-11-10T02:25:20.036Z,1004.64
2018-11-10T02:25:20.634Z,1004.64
2018-11-10T02:25:21.267Z,1004.65
2018-11-10T02:26:15.737Z,1004.63
2018-11-10T02:26:16.318Z,1004.56
2018-11-10T02:26:16.911Z,1004.58
2018-11-10T02:26:17.511Z,1004.59
2018-11-10T02:26:18.111Z,1004.58
2018-11-10T02:26:18.712Z,1004.59
2018-11-10T02:26:19.311Z,1004.58
2018-11-10T02:26:19.913Z,1004.59
2018-11-10T02:27:13.366Z,1004.52
2018-11-10T02:27:13.965Z,1004.56
2018-11-10T02:27:14.563Z,1004.57
2018-11-10T02:27:15.164Z,1004.54
2018-11-10T02:27:15.763Z,1004.57
2018-11-10T02:27:16.364Z,1004.54
2018-11-10T02:27:16.962Z,1004.55
2018-11-10T02:27:17.563Z,1004.55
2018-11-10T02:28:12.043Z,1004.55
2018-11-10T02:28:12.639Z,1004.55
2018-11-10T02:28:13.238Z,1004.55
2018-11-10T02:28:13.839Z,1004.56
2018-11-10T02:28:14.439Z,1004.60
2018-11-10T02:28:15.038Z,1004.57
2018-11-10T02:28:15.638Z,1004.57
2018-11-10T02:28:16.242Z,1004.58
2018-11-10T02:29:10.717Z,1004.50
2018-11-10T02:29:11.314Z,1004.55
2018-11-10T02:29:11.914Z,1004.53
2018-11-10T02:29:12.514Z,1004.53
2018-11-10T02:29:13.115Z,1004.55
2018-11-10T02:29:13.716Z,1004.51
2018-11-10T02:29:14.313Z,1004.53
2018-11-10T02:29:14.913Z,1004.57
2018-11-10T02:30:08.372Z,1004.56
2018-11-10T02:30:08.967Z,1004.56
2018-11-10T02:30:09.567Z,1004.56
2018-11-10T02:30:10.165Z,1004.59
2018-11-10T02:30:10.772Z,1004.56
2018-11-10T02:30:11.368Z,1004.59
2018-11-10T02:30:11.969Z,1004.59
2018-11-10T02:30:12.571Z,1004.56
2018-11-10T02:31:07.069Z,1004.57
2018-11-10T02:31:07.647Z,1004.58
2018-11-10T02:31:08.242Z,1004.59
2018-11-10T02:31:08.854Z,1004.55
2018-11-10T02:31:09.440Z,1004.57
2018-11-10T02:31:10.047Z,1004.52
2018-11-10T02:31:10.642Z,1004.56
2018-11-10T02:31:11.240Z,1004.60
2018-11-10T02:32:05.721Z,1004.57
2018-11-10T02:32:06.320Z,1004.53
2018-11-10T02:32:06.918Z,1004.51
2018-11-10T02:32:07.517Z,1004.53
2018-11-10T02:32:08.118Z,1004.56
2018-11-10T02:32:08.718Z,1004.54
2018-11-10T02:32:09.317Z,1004.51
2018-11-10T02:32:09.917Z,1004.56
2018-11-10T02:33:03.375Z,1004.52
2018-11-10T02:33:03.970Z,1004.51
2018-11-10T02:33:04.571Z,1004.52
2018-11-10T02:33:05.170Z,1004.50
2018-11-10T02:33:05.769Z,1004.51
2018-11-10T02:33:06.369Z,1004.53
2018-11-10T02:33:06.971Z,1004.49
2018-11-10T02:33:07.569Z,1004.52
2018-11-10T02:34:02.050Z,1004.52
2018-11-10T02:34:02.650Z,1004.50
2018-11-10T02:34:03.245Z,1004.47
2018-11-10T02:34:03.845Z,1004.50
2018-11-10T02:34:04.446Z,1004.50
2018-11-10T02:34:05.046Z,1004.51
2018-11-10T02:34:05.644Z,1004.53
2018-11-10T02:34:06.244Z,1004.47
2018-11-10T02:35:00.724Z,1004.48
2018-11-10T02:35:01.322Z,1004.51
2018-11-10T02:35:01.924Z,1004.47
2018-11-10T02:35:02.523Z,1004.52
2018-11-10T02:35:03.121Z,1004.54
2018-11-10T02:35:03.720Z,1004.50
2018-11-10T02:35:04.319Z,1004.52
2018-11-10T02:35:04.929Z,1004.52
2018-11-10T02:35:59.400Z,1004.52
2018-11-10T02:35:59.996Z,1004.51
2018-11-10T02:36:00.602Z,1004.54
2018-11-10T02:36:01.196Z,1004.54
2018-11-10T02:36:01.796Z,1004.54
2018-11-10T02:36:02.397Z,1004.50
2018-11-10T02:36:02.995Z,1004.53
2018-11-10T02:36:03.594Z,1004.53
2018-11-10T02:36:57.083Z,1004.56
2018-11-10T02:36:57.649Z,1004.54
2018-11-10T02:36:58.248Z,1004.55
2018-11-10T02:36:58.848Z,1004.56
2018-11-10T02:36:59.448Z,1004.58
2018-11-10T02:37:00.050Z,1004.55
2018-11-10T02:37:00.649Z,1004.57
2018-11-10T02:37:01.248Z,1004.59
2018-11-10T02:37:55.728Z,1004.56
2018-11-10T02:37:56.324Z,1004.53
2018-11-10T02:37:56.924Z,1004.58
2018-11-10T02:37:57.522Z,1004.56
2018-11-10T02:37:58.123Z,1004.56
2018-11-10T02:37:58.722Z,1004.56
2018-11-10T02:37:59.324Z,1004.58
2018-11-10T02:37:59.924Z,1004.56
2018-11-10T02:38:53.479Z,1004.53
2018-11-10T02:38:54.095Z,1004.53
2018-11-10T02:38:54.577Z,1004.59
2018-11-10T02:38:55.184Z,1004.56
2018-11-10T02:38:55.777Z,1004.55
2018-11-10T02:38:56.378Z,1004.56
2018-11-10T02:38:56.976Z,1004.56
2018-11-10T02:38:57.576Z,1004.59
2018-11-10T02:39:52.056Z,1004.55
2018-11-10T02:39:52.652Z,1004.56
2018-11-10T02:39:53.263Z,1004.55
2018-11-10T02:39:53.855Z,1004.54
2018-11-10T02:39:54.452Z,1004.55
2018-11-10T02:39:55.051Z,1004.56
2018-11-10T02:39:55.651Z,1004.56
2018-11-10T02:39:56.251Z,1004.57
2018-11-10T02:40:49.707Z,1004.51
2018-11-10T02:40:50.308Z,1004.53
2018-11-10T02:40:50.904Z,1004.52
2018-11-10T02:40:51.504Z,1004.56
2018-11-10T02:40:52.103Z,1004.57
2018-11-10T02:40:52.703Z,1004.54
2018-11-10T02:40:53.305Z,1004.58
2018-11-10T02:40:53.902Z,1004.53
2018-11-10T02:41:48.382Z,1004.55
2018-11-10T02:41:48.981Z,1004.54
2018-11-10T02:41:49.580Z,1004.57
2018-11-10T02:41:50.177Z,1004.56
2018-11-10T02:41:50.777Z,1004.55
2018-11-10T02:41:51.379Z,1004.55
2018-11-10T02:41:51.980Z,1004.53
2018-11-10T02:41:52.580Z,1004.54
2018-11-10T02:42:46.058Z,1004.49
2018-11-10T02:42:46.632Z,1004.49
2018-11-10T02:42:47.231Z,1004.52
2018-11-10T02:42:47.833Z,1004.55
2018-11-10T02:42:48.431Z,1004.54
2018-11-10T02:42:49.031Z,1004.54
2018-11-10T02:42:49.633Z,1004.53
2018-11-10T02:42:50.233Z,1004.49
2018-11-10T02:43:43.689Z,1004.48
2018-11-10T02:43:44.282Z,1004.49
2018-11-10T02:43:44.888Z,1004.50
2018-11-10T02:43:45.485Z,1004.48
2018-11-10T02:43:46.081Z,1004.51
2018-11-10T02:43:46.682Z,1004.49
2018-11-10T02:43:47.283Z,1004.49
2018-11-10T02:43:47.882Z,1004.54
2018-11-10T02:44:42.362Z,1004.49
2018-11-10T02:44:42.958Z,1004.50
2018-11-10T02:44:43.557Z,1004.47
2018-11-10T02:44:44.157Z,1004.46
2018-11-10T02:44:44.757Z,1004.48
2018-11-10T02:44:45.360Z,1004.50
2018-11-10T02:44:45.957Z,1004.48
2018-11-10T02:44:46.558Z,1004.48
2018-11-10T02:45:41.038Z,1004.46
2018-11-10T02:45:41.635Z,1004.47
2018-11-10T02:45:42.233Z,1004.50
2018-11-10T02:45:42.834Z,1004.47
2018-11-10T02:45:43.432Z,1004.48
2018-11-10T02:45:44.034Z,1004.50
2018-11-10T02:45:44.632Z,1004.49
2018-11-10T02:45:45.234Z,1004.47
2018-11-10T02:46:39.736Z,1004.47
2018-11-10T02:46:40.310Z,1004.46
2018-11-10T02:46:40.910Z,1004.47
2018-11-10T02:46:41.508Z,1004.47
2018-11-10T02:46:42.109Z,1004.47
2018-11-10T02:46:42.710Z,1004.48
2018-11-10T02:46:43.312Z,1004.43
2018-11-10T02:46:43.906Z,1004.46
2018-11-10T02:47:37.389Z,1004.47
2018-11-10T02:47:37.962Z,1004.47
2018-11-10T02:47:38.561Z,1004.48
2018-11-10T02:47:39.164Z,1004.47
2018-11-10T02:47:39.767Z,1004.48
2018-11-10T02:47:40.361Z,1004.46
2018-11-10T02:47:40.961Z,1004.48
2018-11-10T02:47:41.563Z,1004.47
2018-11-10T02:48:35.016Z,1004.43
2018-11-10T02:48:35.614Z,1004.42
2018-11-10T02:48:36.212Z,1004.46
2018-11-10T02:48:36.813Z,1004.44
2018-11-10T02:48:37.413Z,1004.43
2018-11-10T02:48:38.013Z,1004.46
2018-11-10T02:48:38.613Z,1004.45
2018-11-10T02:48:39.213Z,1004.40
2018-11-10T02:49:33.690Z,1004.45
2018-11-10T02:49:34.291Z,1004.40
2018-11-10T02:49:34.888Z,1004.43
2018-11-10T02:49:35.488Z,1004.45
2018-11-10T02:49:36.088Z,1004.48
2018-11-10T02:49:36.688Z,1004.46
2018-11-10T02:49:37.286Z,1004.47
2018-11-10T02:49:37.888Z,1004.48
2018-11-10T02:50:32.367Z,1004.45
2018-11-10T02:50:32.964Z,1004.43
2018-11-10T02:50:33.564Z,1004.47
2018-11-10T02:50:34.164Z,1004.44
2018-11-10T02:50:34.764Z,1004.45
2018-11-10T02:50:35.363Z,1004.47
2018-11-10T02:50:35.963Z,1004.43
2018-11-10T02:50:36.564Z,1004.42
2018-11-10T02:51:30.018Z,1004.42
2018-11-10T02:51:30.617Z,1004.41
2018-11-10T02:51:31.216Z,1004.40
2018-11-10T02:51:31.816Z,1004.40
2018-11-10T02:51:32.416Z,1004.44
2018-11-10T02:51:33.017Z,1004.41
2018-11-10T02:51:33.616Z,1004.43
2018-11-10T02:51:34.218Z,1004.40
2018-11-10T02:52:28.718Z,1004.41
2018-11-10T02:52:29.295Z,1004.42
2018-11-10T02:52:29.894Z,1004.41
2018-11-10T02:52:30.516Z,1004.40
2018-11-10T02:52:31.143Z,1004.43
2018-11-10T02:52:31.698Z,1004.42
2018-11-10T02:52:32.321Z,1004.41
2018-11-10T02:52:32.949Z,1004.40
2018-11-10T02:53:27.370Z,1004.44
2018-11-10T02:53:27.966Z,1004.42
2018-11-10T02:53:28.567Z,1004.45
2018-11-10T02:53:29.166Z,1004.44
2018-11-10T02:53:29.767Z,1004.46
2018-11-10T02:53:30.367Z,1004.40
2018-11-10T02:53:30.967Z,1004.45
2018-11-10T02:53:31.567Z,1004.45
2018-11-10T02:54:25.022Z,1004.43
2018-11-10T02:54:25.622Z,1004.44
2018-11-10T02:54:26.220Z,1004.48
2018-11-10T02:54:26.820Z,1004.44
2018-11-10T02:54:27.420Z,1004.47
2018-11-10T02:54:28.026Z,1004.48
2018-11-10T02:54:28.618Z,1004.46
2018-11-10T02:54:29.218Z,1004.51
2018-11-10T02:55:23.699Z,1004.42
2018-11-10T02:55:24.295Z,1004.42
2018-11-10T02:55:24.895Z,1004.43
2018-11-10T02:55:25.496Z,1004.45
2018-11-10T02:55:26.095Z,1004.45
2018-11-10T02:55:26.695Z,1004.44
2018-11-10T02:55:27.298Z,1004.45
2018-11-10T02:55:27.896Z,1004.46
2018-11-10T02:56:22.373Z,1004.43
2018-11-10T02:56:22.973Z,1004.44
2018-11-10T02:56:23.575Z,1004.42
2018-11-10T02:56:24.170Z,1004.44
2018-11-10T02:56:24.770Z,1004.42
2018-11-10T02:56:25.371Z,1004.44
2018-11-10T02:56:25.971Z,1004.42
2018-11-10T02:56:26.570Z,1004.45
2018-11-10T02:57:21.083Z,1004.43
2018-11-10T02:57:21.646Z,1004.43
2018-11-10T02:57:22.246Z,1004.39
2018-11-10T02:57:22.847Z,1004.35
2018-11-10T02:57:23.445Z,1004.38
2018-11-10T02:57:24.044Z,1004.39